sensor_id;sensor_type;location;lat;lon;timestamp;P1;durP1;ratioP1;P2;durP2;ratioP2
30235;SDS011;17048;53.092;8.746;2023-07-30T00:01:48;12.50;;;9.35;;
30235;SDS011;17048;53.092;8.746;2023-07-30T00:04:14;14.30;;;8.50;;
30235;SDS011;17048;53.092;8.746;2023-07-30T00:06:41;12.63;;;8.18;;
30235;SDS011;17048;53.092;8.746;2023-07-30T00:09:08;11.80;;;8.60;;
30235;SDS011;17048;53.092;8.746;2023-07-30T00:11:35;13.75;;;8.23;;
30235;SDS011;17048;53.092;8.746;2023-07-30T00:14:03;16.73;;;8.50;;
30235;SDS011;17048;53.092;8.746;2023-07-30T00:16:29;11.68;;;8.10;;
30235;SDS011;17048;53.092;8.746;2023-07-30T00:18:59;15.13;;;9.18;;
30235;SDS011;17048;53.092;8.746;2023-07-30T00:21:26;13.73;;;9.77;;
30235;SDS011;17048;53.092;8.746;2023-07-30T00:23:53;17.73;;;8.90;;
30235;SDS011;17048;53.092;8.746;2023-07-30T00:26:20;12.48;;;9.25;;
30235;SDS011;17048;53.092;8.746;2023-07-30T00:28:47;17.60;;;9.35;;
30235;SDS011;17048;53.092;8.746;2023-07-30T00:31:14;15.02;;;9.00;;
30235;SDS011;17048;53.092;8.746;2023-07-30T00:33:41;13.30;;;8.73;;
30235;SDS011;17048;53.092;8.746;2023-07-30T00:36:13;13.75;;;9.90;;
30235;SDS011;17048;53.092;8.746;2023-07-30T00:38:40;12.85;;;9.23;;
30235;SDS011;17048;53.092;8.746;2023-07-30T00:41:07;13.88;;;8.68;;
30235;SDS011;17048;53.092;8.746;2023-07-30T00:43:34;11.70;;;8.23;;
30235;SDS011;17048;53.092;8.746;2023-07-30T00:46:02;17.15;;;7.93;;
30235;SDS011;17048;53.092;8.746;2023-07-30T00:48:31;10.15;;;7.38;;
30235;SDS011;17048;53.092;8.746;2023-07-30T00:51:01;11.75;;;7.95;;
30235;SDS011;17048;53.092;8.746;2023-07-30T00:53:32;12.00;;;7.70;;
30235;SDS011;17048;53.092;8.746;2023-07-30T00:56:02;10.82;;;8.35;;
30235;SDS011;17048;53.092;8.746;2023-07-30T00:58:29;15.07;;;7.80;;
30235;SDS011;17048;53.092;8.746;2023-07-30T01:00:56;18.00;;;8.00;;
30235;SDS011;17048;53.092;8.746;2023-07-30T01:03:23;17.50;;;8.00;;
30235;SDS011;17048;53.092;8.746;2023-07-30T01:05:50;11.23;;;7.43;;
30235;SDS011;17048;53.092;8.746;2023-07-30T01:08:17;14.27;;;8.60;;
30235;SDS011;17048;53.092;8.746;2023-07-30T01:10:44;14.27;;;7.30;;
30235;SDS011;17048;53.092;8.746;2023-07-30T01:13:12;15.23;;;8.23;;
30235;SDS011;17048;53.092;8.746;2023-07-30T01:15:40;13.50;;;8.07;;
30235;SDS011;17048;53.092;8.746;2023-07-30T01:18:08;10.45;;;8.02;;
30235;SDS011;17048;53.092;8.746;2023-07-30T01:20:35;15.07;;;8.10;;
30235;SDS011;17048;53.092;8.746;2023-07-30T01:23:01;13.75;;;8.15;;
30235;SDS011;17048;53.092;8.746;2023-07-30T01:25:29;12.27;;;7.78;;
30235;SDS011;17048;53.092;8.746;2023-07-30T01:28:00;19.08;;;8.52;;
30235;SDS011;17048;53.092;8.746;2023-07-30T01:30:47;11.52;;;8.23;;
30235;SDS011;17048;53.092;8.746;2023-07-30T01:33:15;18.83;;;7.85;;
30235;SDS011;17048;53.092;8.746;2023-07-30T01:35:45;11.32;;;7.20;;
30235;SDS011;17048;53.092;8.746;2023-07-30T01:38:12;12.25;;;7.70;;
30235;SDS011;17048;53.092;8.746;2023-07-30T01:40:39;15.23;;;9.15;;
30235;SDS011;17048;53.092;8.746;2023-07-30T01:43:07;14.95;;;8.77;;
30235;SDS011;17048;53.092;8.746;2023-07-30T01:45:34;12.48;;;8.45;;
30235;SDS011;17048;53.092;8.746;2023-07-30T01:48:07;10.55;;;7.88;;
30235;SDS011;17048;53.092;8.746;2023-07-30T01:57:19;15.30;;;8.98;;
30235;SDS011;17048;53.092;8.746;2023-07-30T01:59:47;17.00;;;9.43;;
30235;SDS011;17048;53.092;8.746;2023-07-30T02:02:14;14.13;;;8.93;;
30235;SDS011;17048;53.092;8.746;2023-07-30T02:04:41;12.88;;;8.45;;
30235;SDS011;17048;53.092;8.746;2023-07-30T02:07:08;15.60;;;8.32;;
30235;SDS011;17048;53.092;8.746;2023-07-30T02:09:35;18.98;;;9.50;;
30235;SDS011;17048;53.092;8.746;2023-07-30T02:12:03;13.38;;;8.90;;
30235;SDS011;17048;53.092;8.746;2023-07-30T02:14:30;15.10;;;8.73;;
30235;SDS011;17048;53.092;8.746;2023-07-30T02:16:57;13.65;;;8.10;;
30235;SDS011;17048;53.092;8.746;2023-07-30T02:19:24;17.50;;;8.30;;
30235;SDS011;17048;53.092;8.746;2023-07-30T02:21:51;13.27;;;8.98;;
30235;SDS011;17048;53.092;8.746;2023-07-30T02:24:18;13.70;;;7.80;;
30235;SDS011;17048;53.092;8.746;2023-07-30T02:26:45;19.25;;;9.20;;
30235;SDS011;17048;53.092;8.746;2023-07-30T02:29:12;14.43;;;8.57;;
30235;SDS011;17048;53.092;8.746;2023-07-30T02:31:42;16.92;;;8.38;;
30235;SDS011;17048;53.092;8.746;2023-07-30T02:34:09;11.63;;;8.07;;
30235;SDS011;17048;53.092;8.746;2023-07-30T02:36:35;14.02;;;8.90;;
30235;SDS011;17048;53.092;8.746;2023-07-30T02:39:02;14.57;;;8.25;;
30235;SDS011;17048;53.092;8.746;2023-07-30T02:41:31;13.48;;;7.97;;
30235;SDS011;17048;53.092;8.746;2023-07-30T02:43:58;16.05;;;10.20;;
30235;SDS011;17048;53.092;8.746;2023-07-30T02:46:25;17.50;;;8.30;;
30235;SDS011;17048;53.092;8.746;2023-07-30T02:48:52;14.77;;;8.52;;
30235;SDS011;17048;53.092;8.746;2023-07-30T02:51:21;14.18;;;8.88;;
30235;SDS011;17048;53.092;8.746;2023-07-30T02:53:51;15.32;;;8.20;;
30235;SDS011;17048;53.092;8.746;2023-07-30T02:56:18;14.68;;;8.52;;
30235;SDS011;17048;53.092;8.746;2023-07-30T02:58:44;15.88;;;9.18;;
30235;SDS011;17048;53.092;8.746;2023-07-30T03:01:14;17.35;;;9.23;;
30235;SDS011;17048;53.092;8.746;2023-07-30T03:03:41;16.77;;;9.80;;
30235;SDS011;17048;53.092;8.746;2023-07-30T03:06:08;20.05;;;9.32;;
30235;SDS011;17048;53.092;8.746;2023-07-30T03:08:35;17.17;;;9.52;;
30235;SDS011;17048;53.092;8.746;2023-07-30T03:11:05;18.25;;;9.45;;
30235;SDS011;17048;53.092;8.746;2023-07-30T03:13:32;18.20;;;9.18;;
30235;SDS011;17048;53.092;8.746;2023-07-30T03:15:59;20.20;;;10.75;;
30235;SDS011;17048;53.092;8.746;2023-07-30T03:18:26;16.35;;;9.20;;
30235;SDS011;17048;53.092;8.746;2023-07-30T03:20:58;18.65;;;8.70;;
30235;SDS011;17048;53.092;8.746;2023-07-30T03:23:25;20.92;;;10.80;;
30235;SDS011;17048;53.092;8.746;2023-07-30T03:25:54;18.38;;;9.65;;
30235;SDS011;17048;53.092;8.746;2023-07-30T03:28:21;17.15;;;9.60;;
30235;SDS011;17048;53.092;8.746;2023-07-30T03:30:49;16.40;;;8.70;;
30235;SDS011;17048;53.092;8.746;2023-07-30T03:33:16;27.60;;;9.73;;
30235;SDS011;17048;53.092;8.746;2023-07-30T03:35:43;19.65;;;10.15;;
30235;SDS011;17048;53.092;8.746;2023-07-30T03:38:12;22.15;;;9.52;;
30235;SDS011;17048;53.092;8.746;2023-07-30T03:40:42;22.90;;;10.32;;
30235;SDS011;17048;53.092;8.746;2023-07-30T03:43:08;23.90;;;9.55;;
30235;SDS011;17048;53.092;8.746;2023-07-30T03:45:35;21.00;;;8.90;;
30235;SDS011;17048;53.092;8.746;2023-07-30T03:48:05;10.48;;;7.47;;
30235;SDS011;17048;53.092;8.746;2023-07-30T03:50:35;26.00;;;9.05;;
30235;SDS011;17048;53.092;8.746;2023-07-30T03:53:01;19.83;;;8.35;;
30235;SDS011;17048;53.092;8.746;2023-07-30T03:55:29;12.85;;;7.43;;
30235;SDS011;17048;53.092;8.746;2023-07-30T03:57:56;12.57;;;7.30;;
30235;SDS011;17048;53.092;8.746;2023-07-30T04:00:25;22.48;;;8.52;;
30235;SDS011;17048;53.092;8.746;2023-07-30T04:02:56;21.77;;;7.85;;
30235;SDS011;17048;53.092;8.746;2023-07-30T04:05:25;23.65;;;8.38;;
30235;SDS011;17048;53.092;8.746;2023-07-30T04:07:52;18.00;;;7.80;;
30235;SDS011;17048;53.092;8.746;2023-07-30T04:10:19;15.45;;;6.72;;
30235;SDS011;17048;53.092;8.746;2023-07-30T04:12:46;20.17;;;7.03;;
30235;SDS011;17048;53.092;8.746;2023-07-30T04:15:14;21.73;;;7.32;;
30235;SDS011;17048;53.092;8.746;2023-07-30T04:17:44;22.77;;;6.82;;
30235;SDS011;17048;53.092;8.746;2023-07-30T04:20:11;23.42;;;5.88;;
30235;SDS011;17048;53.092;8.746;2023-07-30T04:22:40;21.38;;;6.55;;
30235;SDS011;17048;53.092;8.746;2023-07-30T04:25:08;18.75;;;5.80;;
30235;SDS011;17048;53.092;8.746;2023-07-30T04:27:37;19.25;;;5.95;;
30235;SDS011;17048;53.092;8.746;2023-07-30T04:30:05;26.65;;;6.65;;
30235;SDS011;17048;53.092;8.746;2023-07-30T04:32:33;19.45;;;6.15;;
30235;SDS011;17048;53.092;8.746;2023-07-30T04:35:01;20.50;;;6.28;;
30235;SDS011;17048;53.092;8.746;2023-07-30T04:37:29;11.50;;;4.90;;
30235;SDS011;17048;53.092;8.746;2023-07-30T04:39:56;20.48;;;7.00;;
30235;SDS011;17048;53.092;8.746;2023-07-30T04:42:23;30.10;;;5.88;;
30235;SDS011;17048;53.092;8.746;2023-07-30T04:44:52;11.20;;;5.15;;
30235;SDS011;17048;53.092;8.746;2023-07-30T04:47:19;21.02;;;6.50;;
30235;SDS011;17048;53.092;8.746;2023-07-30T04:49:46;22.08;;;6.22;;
30235;SDS011;17048;53.092;8.746;2023-07-30T04:52:13;23.67;;;5.80;;
30235;SDS011;17048;53.092;8.746;2023-07-30T04:54:41;12.82;;;5.30;;
30235;SDS011;17048;53.092;8.746;2023-07-30T04:57:08;23.33;;;6.18;;
30235;SDS011;17048;53.092;8.746;2023-07-30T04:59:35;12.60;;;5.00;;
30235;SDS011;17048;53.092;8.746;2023-07-30T05:02:03;18.30;;;6.43;;
30235;SDS011;17048;53.092;8.746;2023-07-30T05:04:30;18.58;;;5.38;;
30235;SDS011;17048;53.092;8.746;2023-07-30T05:07:00;17.80;;;4.22;;
30235;SDS011;17048;53.092;8.746;2023-07-30T05:09:28;16.20;;;4.53;;
30235;SDS011;17048;53.092;8.746;2023-07-30T05:11:58;10.57;;;4.10;;
30235;SDS011;17048;53.092;8.746;2023-07-30T05:14:27;16.80;;;5.10;;
30235;SDS011;17048;53.092;8.746;2023-07-30T05:16:55;14.05;;;4.63;;
30235;SDS011;17048;53.092;8.746;2023-07-30T05:19:22;12.63;;;4.00;;
30235;SDS011;17048;53.092;8.746;2023-07-30T05:21:52;11.93;;;3.80;;
30235;SDS011;17048;53.092;8.746;2023-07-30T05:24:34;8.90;;;3.38;;
30235;SDS011;17048;53.092;8.746;2023-07-30T05:27:17;15.93;;;3.25;;
30235;SDS011;17048;53.092;8.746;2023-07-30T05:30:00;14.90;;;3.38;;
30235;SDS011;17048;53.092;8.746;2023-07-30T05:32:28;12.15;;;3.20;;
30235;SDS011;17048;53.092;8.746;2023-07-30T05:34:56;14.20;;;3.03;;
30235;SDS011;17048;53.092;8.746;2023-07-30T05:37:23;9.05;;;2.97;;
30235;SDS011;17048;53.092;8.746;2023-07-30T05:43:06;12.23;;;2.65;;
30235;SDS011;17048;53.092;8.746;2023-07-30T05:45:33;5.65;;;2.08;;
30235;SDS011;17048;53.092;8.746;2023-07-30T05:48:00;5.80;;;2.53;;
30235;SDS011;17048;53.092;8.746;2023-07-30T05:50:27;6.03;;;2.47;;
30235;SDS011;17048;53.092;8.746;2023-07-30T05:52:54;13.73;;;2.83;;
30235;SDS011;17048;53.092;8.746;2023-07-30T05:55:24;7.05;;;2.42;;
30235;SDS011;17048;53.092;8.746;2023-07-30T05:57:54;7.93;;;2.75;;
30235;SDS011;17048;53.092;8.746;2023-07-30T06:00:21;8.80;;;2.72;;
30235;SDS011;17048;53.092;8.746;2023-07-30T06:02:52;10.30;;;3.10;;
30235;SDS011;17048;53.092;8.746;2023-07-30T06:05:20;14.30;;;3.40;;
30235;SDS011;17048;53.092;8.746;2023-07-30T06:08:07;19.92;;;3.72;;
30235;SDS011;17048;53.092;8.746;2023-07-30T06:10:41;9.88;;;2.60;;
30235;SDS011;17048;53.092;8.746;2023-07-30T06:13:13;7.53;;;2.63;;
30235;SDS011;17048;53.092;8.746;2023-07-30T06:15:44;9.70;;;2.22;;
30235;SDS011;17048;53.092;8.746;2023-07-30T06:18:25;13.57;;;2.85;;
30235;SDS011;17048;53.092;8.746;2023-07-30T06:21:02;9.88;;;3.45;;
30235;SDS011;17048;53.092;8.746;2023-07-30T06:23:34;13.25;;;2.35;;
30235;SDS011;17048;53.092;8.746;2023-07-30T06:26:05;7.43;;;2.28;;
30235;SDS011;17048;53.092;8.746;2023-07-30T06:28:46;11.27;;;2.72;;
30235;SDS011;17048;53.092;8.746;2023-07-30T06:31:14;12.40;;;2.80;;
30235;SDS011;17048;53.092;8.746;2023-07-30T06:33:45;15.98;;;3.05;;
30235;SDS011;17048;53.092;8.746;2023-07-30T06:36:20;9.95;;;2.78;;
30235;SDS011;17048;53.092;8.746;2023-07-30T06:39:01;10.95;;;3.63;;
30235;SDS011;17048;53.092;8.746;2023-07-30T06:41:32;12.68;;;3.22;;
30235;SDS011;17048;53.092;8.746;2023-07-30T06:44:15;8.02;;;2.25;;
30235;SDS011;17048;53.092;8.746;2023-07-30T06:46:46;8.15;;;2.35;;
30235;SDS011;17048;53.092;8.746;2023-07-30T06:49:19;11.90;;;2.88;;
30235;SDS011;17048;53.092;8.746;2023-07-30T06:51:47;13.85;;;3.33;;
30235;SDS011;17048;53.092;8.746;2023-07-30T06:54:30;13.88;;;3.05;;
30235;SDS011;17048;53.092;8.746;2023-07-30T06:57:01;11.13;;;3.08;;
30235;SDS011;17048;53.092;8.746;2023-07-30T06:59:29;11.25;;;3.00;;
30235;SDS011;17048;53.092;8.746;2023-07-30T07:02:10;15.15;;;2.72;;
30235;SDS011;17048;53.092;8.746;2023-07-30T07:04:42;7.80;;;2.80;;
30235;SDS011;17048;53.092;8.746;2023-07-30T07:07:09;14.75;;;3.00;;
30235;SDS011;17048;53.092;8.746;2023-07-30T07:09:42;16.88;;;4.00;;
30235;SDS011;17048;53.092;8.746;2023-07-30T07:12:22;11.45;;;2.50;;
30235;SDS011;17048;53.092;8.746;2023-07-30T07:14:57;13.85;;;3.67;;
30235;SDS011;17048;53.092;8.746;2023-07-30T07:17:38;11.10;;;3.08;;
30235;SDS011;17048;53.092;8.746;2023-07-30T07:20:15;12.15;;;3.65;;
30235;SDS011;17048;53.092;8.746;2023-07-30T07:22:51;12.80;;;2.97;;
30235;SDS011;17048;53.092;8.746;2023-07-30T07:25:24;16.40;;;3.33;;
30235;SDS011;17048;53.092;8.746;2023-07-30T07:27:57;14.95;;;2.80;;
30235;SDS011;17048;53.092;8.746;2023-07-30T07:30:39;11.35;;;2.90;;
30235;SDS011;17048;53.092;8.746;2023-07-30T07:33:10;15.10;;;3.53;;
30235;SDS011;17048;53.092;8.746;2023-07-30T07:35:40;17.00;;;3.33;;
30235;SDS011;17048;53.092;8.746;2023-07-30T07:38:18;6.80;;;2.08;;
30235;SDS011;17048;53.092;8.746;2023-07-30T07:41:02;17.13;;;3.28;;
30235;SDS011;17048;53.092;8.746;2023-07-30T07:43:48;14.60;;;2.22;;
30235;SDS011;17048;53.092;8.746;2023-07-30T07:46:34;13.98;;;2.70;;
30235;SDS011;17048;53.092;8.746;2023-07-30T07:49:01;19.13;;;2.90;;
30235;SDS011;17048;53.092;8.746;2023-07-30T07:51:28;11.50;;;3.38;;
30235;SDS011;17048;53.092;8.746;2023-07-30T07:54:06;16.85;;;2.97;;
30235;SDS011;17048;53.092;8.746;2023-07-30T07:56:39;10.75;;;2.97;;
30235;SDS011;17048;53.092;8.746;2023-07-30T07:59:07;11.38;;;2.70;;
30235;SDS011;17048;53.092;8.746;2023-07-30T08:01:34;8.45;;;2.15;;
30235;SDS011;17048;53.092;8.746;2023-07-30T08:04:02;9.63;;;2.25;;
30235;SDS011;17048;53.092;8.746;2023-07-30T08:06:31;10.57;;;2.60;;
30235;SDS011;17048;53.092;8.746;2023-07-30T08:11:48;9.70;;;2.35;;
30235;SDS011;17048;53.092;8.746;2023-07-30T08:14:18;14.95;;;2.83;;
30235;SDS011;17048;53.092;8.746;2023-07-30T08:16:50;11.23;;;3.10;;
30235;SDS011;17048;53.092;8.746;2023-07-30T08:19:20;10.10;;;2.40;;
30235;SDS011;17048;53.092;8.746;2023-07-30T08:21:55;12.68;;;2.67;;
30235;SDS011;17048;53.092;8.746;2023-07-30T08:24:24;10.35;;;2.95;;
30235;SDS011;17048;53.092;8.746;2023-07-30T08:26:52;7.70;;;2.90;;
30235;SDS011;17048;53.092;8.746;2023-07-30T08:29:23;13.20;;;2.47;;
30235;SDS011;17048;53.092;8.746;2023-07-30T08:31:56;11.55;;;3.88;;
30235;SDS011;17048;53.092;8.746;2023-07-30T08:34:35;7.68;;;2.55;;
30235;SDS011;17048;53.092;8.746;2023-07-30T08:39:57;16.15;;;2.85;;
30235;SDS011;17048;53.092;8.746;2023-07-30T08:42:27;16.67;;;3.70;;
30235;SDS011;17048;53.092;8.746;2023-07-30T08:45:05;15.05;;;3.13;;
30235;SDS011;17048;53.092;8.746;2023-07-30T08:47:35;13.95;;;2.90;;
30235;SDS011;17048;53.092;8.746;2023-07-30T08:50:12;10.38;;;2.90;;
30235;SDS011;17048;53.092;8.746;2023-07-30T08:52:41;13.50;;;3.25;;
30235;SDS011;17048;53.092;8.746;2023-07-30T08:55:11;9.75;;;2.47;;
30235;SDS011;17048;53.092;8.746;2023-07-30T08:57:44;12.52;;;2.88;;
30235;SDS011;17048;53.092;8.746;2023-07-30T09:00:18;13.52;;;3.15;;
30235;SDS011;17048;53.092;8.746;2023-07-30T09:02:56;14.00;;;3.53;;
30235;SDS011;17048;53.092;8.746;2023-07-30T09:05:29;15.88;;;3.15;;
30235;SDS011;17048;53.092;8.746;2023-07-30T09:07:59;11.30;;;3.20;;
30235;SDS011;17048;53.092;8.746;2023-07-30T09:10:30;15.43;;;3.65;;
30235;SDS011;17048;53.092;8.746;2023-07-30T09:12:58;12.63;;;3.00;;
30235;SDS011;17048;53.092;8.746;2023-07-30T09:15:30;11.60;;;3.35;;
30235;SDS011;17048;53.092;8.746;2023-07-30T09:18:04;7.53;;;2.40;;
30235;SDS011;17048;53.092;8.746;2023-07-30T09:23:42;13.95;;;3.67;;
30235;SDS011;17048;53.092;8.746;2023-07-30T09:26:19;16.13;;;3.28;;
30235;SDS011;17048;53.092;8.746;2023-07-30T09:29:00;12.18;;;3.30;;
30235;SDS011;17048;53.092;8.746;2023-07-30T09:31:46;14.32;;;2.65;;
30235;SDS011;17048;53.092;8.746;2023-07-30T09:34:15;15.40;;;2.83;;
30235;SDS011;17048;53.092;8.746;2023-07-30T09:36:57;18.38;;;3.45;;
30235;SDS011;17048;53.092;8.746;2023-07-30T09:39:42;12.98;;;3.33;;
30235;SDS011;17048;53.092;8.746;2023-07-30T09:42:12;13.00;;;3.53;;
30235;SDS011;17048;53.092;8.746;2023-07-30T09:44:47;14.02;;;3.60;;
30235;SDS011;17048;53.092;8.746;2023-07-30T09:47:17;11.63;;;3.25;;
30235;SDS011;17048;53.092;8.746;2023-07-30T09:50:01;16.63;;;3.78;;
30235;SDS011;17048;53.092;8.746;2023-07-30T09:55:39;18.50;;;3.78;;
30235;SDS011;17048;53.092;8.746;2023-07-30T09:58:24;16.83;;;4.85;;
30235;SDS011;17048;53.092;8.746;2023-07-30T10:00:54;10.95;;;3.15;;
30235;SDS011;17048;53.092;8.746;2023-07-30T10:03:27;14.50;;;2.92;;
30235;SDS011;17048;53.092;8.746;2023-07-30T10:06:03;14.30;;;3.22;;
30235;SDS011;17048;53.092;8.746;2023-07-30T10:08:47;13.27;;;3.17;;
30235;SDS011;17048;53.092;8.746;2023-07-30T10:11:27;15.38;;;3.15;;
30235;SDS011;17048;53.092;8.746;2023-07-30T10:14:09;8.52;;;2.55;;
30235;SDS011;17048;53.092;8.746;2023-07-30T10:16:42;11.55;;;2.92;;
30235;SDS011;17048;53.092;8.746;2023-07-30T10:19:32;12.77;;;3.13;;
30235;SDS011;17048;53.092;8.746;2023-07-30T10:25:21;19.40;;;4.13;;
30235;SDS011;17048;53.092;8.746;2023-07-30T10:27:52;12.85;;;2.97;;
30235;SDS011;17048;53.092;8.746;2023-07-30T10:30:44;13.30;;;3.78;;
30235;SDS011;17048;53.092;8.746;2023-07-30T10:36:42;11.73;;;2.65;;
30235;SDS011;17048;53.092;8.746;2023-07-30T10:39:32;14.40;;;2.85;;
30235;SDS011;17048;53.092;8.746;2023-07-30T10:42:16;12.70;;;3.20;;
30235;SDS011;17048;53.092;8.746;2023-07-30T10:44:52;12.00;;;2.90;;
30235;SDS011;17048;53.092;8.746;2023-07-30T10:47:46;16.20;;;3.10;;
30235;SDS011;17048;53.092;8.746;2023-07-30T10:50:22;14.60;;;2.95;;
30235;SDS011;17048;53.092;8.746;2023-07-30T10:53:02;10.02;;;2.22;;
30235;SDS011;17048;53.092;8.746;2023-07-30T10:55:35;15.05;;;3.35;;
30235;SDS011;17048;53.092;8.746;2023-07-30T10:58:21;11.73;;;2.85;;
30235;SDS011;17048;53.092;8.746;2023-07-30T11:01:07;13.27;;;2.70;;
30235;SDS011;17048;53.092;8.746;2023-07-30T11:03:41;10.88;;;2.95;;
30235;SDS011;17048;53.092;8.746;2023-07-30T11:06:20;10.73;;;2.83;;
30235;SDS011;17048;53.092;8.746;2023-07-30T11:08:58;13.07;;;2.53;;
30235;SDS011;17048;53.092;8.746;2023-07-30T11:11:44;12.60;;;2.70;;
30235;SDS011;17048;53.092;8.746;2023-07-30T11:14:34;8.70;;;2.58;;
30235;SDS011;17048;53.092;8.746;2023-07-30T11:17:18;8.82;;;2.20;;
30235;SDS011;17048;53.092;8.746;2023-07-30T11:20:03;9.00;;;2.28;;
30235;SDS011;17048;53.092;8.746;2023-07-30T11:22:58;13.07;;;2.22;;
30235;SDS011;17048;53.092;8.746;2023-07-30T11:25:39;9.65;;;2.05;;
30235;SDS011;17048;53.092;8.746;2023-07-30T11:28:30;9.13;;;2.20;;
30235;SDS011;17048;53.092;8.746;2023-07-30T11:31:18;7.40;;;2.45;;
30235;SDS011;17048;53.092;8.746;2023-07-30T11:34:03;7.00;;;1.80;;
30235;SDS011;17048;53.092;8.746;2023-07-30T11:36:34;10.40;;;2.33;;
30235;SDS011;17048;53.092;8.746;2023-07-30T11:42:24;8.15;;;2.22;;
30235;SDS011;17048;53.092;8.746;2023-07-30T11:45:27;12.30;;;2.83;;
30235;SDS011;17048;53.092;8.746;2023-07-30T11:48:08;12.05;;;2.25;;
30235;SDS011;17048;53.092;8.746;2023-07-30T11:50:53;7.55;;;2.30;;
30235;SDS011;17048;53.092;8.746;2023-07-30T11:53:46;9.75;;;2.47;;
30235;SDS011;17048;53.092;8.746;2023-07-30T11:56:37;7.47;;;2.37;;
30235;SDS011;17048;53.092;8.746;2023-07-30T11:59:19;8.02;;;2.28;;
30235;SDS011;17048;53.092;8.746;2023-07-30T12:02:04;10.38;;;2.63;;
30235;SDS011;17048;53.092;8.746;2023-07-30T12:04:45;14.00;;;3.15;;
30235;SDS011;17048;53.092;8.746;2023-07-30T12:07:28;13.45;;;3.70;;
30235;SDS011;17048;53.092;8.746;2023-07-30T12:14:10;3.30;;;1.08;;
30235;SDS011;17048;53.092;8.746;2023-07-30T12:16:53;3.15;;;1.38;;
30235;SDS011;17048;53.092;8.746;2023-07-30T12:19:51;4.60;;;1.27;;
30235;SDS011;17048;53.092;8.746;2023-07-30T12:22:33;5.00;;;1.55;;
30235;SDS011;17048;53.092;8.746;2023-07-30T12:25:08;3.90;;;1.40;;
30235;SDS011;17048;53.092;8.746;2023-07-30T12:27:50;5.78;;;1.30;;
30235;SDS011;17048;53.092;8.746;2023-07-30T12:30:48;5.60;;;1.50;;
30235;SDS011;17048;53.092;8.746;2023-07-30T12:33:33;8.20;;;1.60;;
30235;SDS011;17048;53.092;8.746;2023-07-30T12:42:04;9.25;;;2.30;;
30235;SDS011;17048;53.092;8.746;2023-07-30T12:44:58;8.77;;;1.83;;
30235;SDS011;17048;53.092;8.746;2023-07-30T12:48:03;7.97;;;1.75;;
30235;SDS011;17048;53.092;8.746;2023-07-30T12:50:47;8.35;;;1.33;;
30235;SDS011;17048;53.092;8.746;2023-07-30T12:56:33;3.00;;;1.42;;
30235;SDS011;17048;53.092;8.746;2023-07-30T12:59:17;5.60;;;1.27;;
30235;SDS011;17048;53.092;8.746;2023-07-30T13:02:26;7.47;;;1.70;;
30235;SDS011;17048;53.092;8.746;2023-07-30T13:05:14;4.82;;;1.90;;
30235;SDS011;17048;53.092;8.746;2023-07-30T13:08:11;7.60;;;1.85;;
30235;SDS011;17048;53.092;8.746;2023-07-30T13:11:28;8.32;;;2.55;;
30235;SDS011;17048;53.092;8.746;2023-07-30T13:14:32;4.57;;;1.60;;
30235;SDS011;17048;53.092;8.746;2023-07-30T13:17:14;6.72;;;1.63;;
30235;SDS011;17048;53.092;8.746;2023-07-30T13:20:06;9.20;;;1.60;;
30235;SDS011;17048;53.092;8.746;2023-07-30T13:22:58;5.00;;;1.20;;
30235;SDS011;17048;53.092;8.746;2023-07-30T13:25:39;6.38;;;1.48;;
30235;SDS011;17048;53.092;8.746;2023-07-30T13:28:20;7.13;;;1.23;;
30235;SDS011;17048;53.092;8.746;2023-07-30T13:31:05;5.78;;;1.63;;
30235;SDS011;17048;53.092;8.746;2023-07-30T13:37:22;9.60;;;1.77;;
30235;SDS011;17048;53.092;8.746;2023-07-30T13:40:03;7.10;;;1.70;;
30235;SDS011;17048;53.092;8.746;2023-07-30T13:42:54;7.90;;;1.70;;
30235;SDS011;17048;53.092;8.746;2023-07-30T13:45:36;6.78;;;1.52;;
30235;SDS011;17048;53.092;8.746;2023-07-30T13:48:35;4.63;;;1.10;;
30235;SDS011;17048;53.092;8.746;2023-07-30T13:51:20;5.80;;;1.55;;
30235;SDS011;17048;53.092;8.746;2023-07-30T13:54:03;7.18;;;1.55;;
30235;SDS011;17048;53.092;8.746;2023-07-30T13:56:48;4.20;;;1.27;;
30235;SDS011;17048;53.092;8.746;2023-07-30T13:59:21;4.80;;;1.38;;
30235;SDS011;17048;53.092;8.746;2023-07-30T14:02:03;7.32;;;1.67;;
30235;SDS011;17048;53.092;8.746;2023-07-30T14:05:00;9.43;;;1.60;;
30235;SDS011;17048;53.092;8.746;2023-07-30T14:07:45;7.97;;;1.25;;
30235;SDS011;17048;53.092;8.746;2023-07-30T14:10:28;6.50;;;1.77;;
30235;SDS011;17048;53.092;8.746;2023-07-30T14:13:11;5.47;;;1.58;;
30235;SDS011;17048;53.092;8.746;2023-07-30T14:15:55;9.05;;;1.33;;
30235;SDS011;17048;53.092;8.746;2023-07-30T14:18:39;4.55;;;1.30;;
30235;SDS011;17048;53.092;8.746;2023-07-30T14:21:25;6.30;;;1.60;;
30235;SDS011;17048;53.092;8.746;2023-07-30T14:24:12;3.17;;;1.00;;
30235;SDS011;17048;53.092;8.746;2023-07-30T14:26:56;9.43;;;1.38;;
30235;SDS011;17048;53.092;8.746;2023-07-30T14:29:40;4.05;;;1.55;;
30235;SDS011;17048;53.092;8.746;2023-07-30T14:32:37;8.52;;;1.35;;
30235;SDS011;17048;53.092;8.746;2023-07-30T14:35:20;5.10;;;1.52;;
30235;SDS011;17048;53.092;8.746;2023-07-30T14:38:08;6.20;;;1.47;;
30235;SDS011;17048;53.092;8.746;2023-07-30T14:43:33;12.27;;;2.30;;
30235;SDS011;17048;53.092;8.746;2023-07-30T14:52:14;4.95;;;1.50;;
30235;SDS011;17048;53.092;8.746;2023-07-30T14:54:47;10.13;;;2.10;;
30235;SDS011;17048;53.092;8.746;2023-07-30T15:05:05;5.37;;;2.20;;
30235;SDS011;17048;53.092;8.746;2023-07-30T15:07:56;5.57;;;2.17;;
30235;SDS011;17048;53.092;8.746;2023-07-30T15:10:40;5.30;;;2.40;;
30235;SDS011;17048;53.092;8.746;2023-07-30T15:13:27;6.82;;;2.58;;
30235;SDS011;17048;53.092;8.746;2023-07-30T15:16:20;4.32;;;1.80;;
30235;SDS011;17048;53.092;8.746;2023-07-30T15:22:01;8.57;;;2.40;;
30235;SDS011;17048;53.092;8.746;2023-07-30T15:25:01;5.13;;;2.78;;
30235;SDS011;17048;53.092;8.746;2023-07-30T15:28:07;5.88;;;1.92;;
30235;SDS011;17048;53.092;8.746;2023-07-30T15:45:18;4.45;;;1.10;;
30235;SDS011;17048;53.092;8.746;2023-07-30T15:50:45;3.90;;;1.10;;
30235;SDS011;17048;53.092;8.746;2023-07-30T15:53:35;4.65;;;1.17;;
30235;SDS011;17048;53.092;8.746;2023-07-30T15:59:46;5.63;;;1.08;;
30235;SDS011;17048;53.092;8.746;2023-07-30T16:02:34;5.30;;;1.23;;
30235;SDS011;17048;53.092;8.746;2023-07-30T16:05:18;3.13;;;1.00;;
30235;SDS011;17048;53.092;8.746;2023-07-30T16:08:02;7.72;;;1.13;;
30235;SDS011;17048;53.092;8.746;2023-07-30T16:11:03;5.63;;;1.10;;
30235;SDS011;17048;53.092;8.746;2023-07-30T16:13:55;2.63;;;0.88;;
30235;SDS011;17048;53.092;8.746;2023-07-30T16:16:37;4.00;;;1.58;;
30235;SDS011;17048;53.092;8.746;2023-07-30T16:19:24;4.73;;;1.13;;
30235;SDS011;17048;53.092;8.746;2023-07-30T16:25:40;4.93;;;1.02;;
30235;SDS011;17048;53.092;8.746;2023-07-30T16:28:15;5.57;;;0.98;;
30235;SDS011;17048;53.092;8.746;2023-07-30T16:30:59;4.95;;;1.00;;
30235;SDS011;17048;53.092;8.746;2023-07-30T16:33:30;4.57;;;1.23;;
30235;SDS011;17048;53.092;8.746;2023-07-30T16:36:19;7.55;;;1.48;;
30235;SDS011;17048;53.092;8.746;2023-07-30T16:39:09;4.10;;;1.83;;
30235;SDS011;17048;53.092;8.746;2023-07-30T16:41:57;4.03;;;1.00;;
30235;SDS011;17048;53.092;8.746;2023-07-30T16:47:33;4.30;;;0.77;;
30235;SDS011;17048;53.092;8.746;2023-07-30T16:50:24;6.60;;;1.20;;
30235;SDS011;17048;53.092;8.746;2023-07-30T16:53:14;5.85;;;1.00;;
30235;SDS011;17048;53.092;8.746;2023-07-30T16:56:18;2.13;;;0.60;;
30235;SDS011;17048;53.092;8.746;2023-07-30T16:59:01;3.78;;;0.77;;
30235;SDS011;17048;53.092;8.746;2023-07-30T17:01:47;4.72;;;1.45;;
30235;SDS011;17048;53.092;8.746;2023-07-30T17:04:33;7.35;;;0.93;;